Time;durP1;ratioP1;P1;durP2;ratioP2;P2;SDS_P1;SDS_P2;PMS_P1;PMS_P2;Temp;Humidity;BMP_temperature;BMP_pressure;BME280_temperature;BME280_humidity;BME280_pressure;Samples;Min_cycle;Max_cycle;Signal;HPM_P1;HPM_P2
2022/08/19 00:00:20;;;;;;;27.00;16.23;;;22.00;75.70;;;;;;5038787;28;20437;-71
2022/08/19 00:02:46;;;;;;;27.27;16.33;;;22.00;75.50;;;;;;5050602;28;20723;-71
2022/08/19 00:05:15;;;;;;;23.97;15.90;;;21.90;75.70;;;;;;5046727;28;20486;-71
2022/08/19 00:07:42;;;;;;;26.13;15.00;;;21.90;76.10;;;;;;5041213;28;20511;-71
2022/08/19 00:10:09;;;;;;;27.00;16.53;;;21.90;75.90;;;;;;5042395;28;20446;-72
2022/08/19 00:12:37;;;;;;;24.10;14.93;;;21.90;75.90;;;;;;5044901;28;20438;-72
2022/08/19 00:15:04;;;;;;;26.97;15.77;;;21.80;76.20;;;;;;5050488;28;20435;-72
2022/08/19 00:17:30;;;;;;;23.03;14.13;;;21.90;76.10;;;;;;5043343;28;20433;-72
2022/08/19 00:19:55;;;;;;;29.83;16.50;;;21.90;75.90;;;;;;5046232;28;20532;-73
2022/08/19 00:22:21;;;;;;;23.20;15.13;;;21.80;76.20;;;;;;5041587;28;20663;-71
2022/08/19 00:24:47;;;;;;;31.43;15.83;;;21.70;76.40;;;;;;5045083;28;20319;-70
2022/08/19 00:27:13;;;;;;;28.60;15.57;;;21.70;76.70;;;;;;5039219;28;20932;-71
2022/08/19 00:29:39;;;;;;;29.60;15.67;;;21.80;76.40;;;;;;5039568;28;20242;-72
2022/08/19 00:32:05;;;;;;;26.03;15.20;;;21.70;76.50;;;;;;5046982;28;20433;-72
2022/08/19 00:34:31;;;;;;;25.33;14.87;;;21.70;76.70;;;;;;5044875;28;20219;-73
2022/08/19 00:36:57;;;;;;;28.40;15.93;;;21.80;76.10;;;;;;5040021;28;20430;-72
2022/08/19 00:39:23;;;;;;;26.60;15.23;;;21.80;76.20;;;;;;5042441;28;20992;-72
2022/08/19 00:41:50;;;;;;;24.13;15.67;;;21.70;76.50;;;;;;5035106;28;20466;-72
2022/08/19 00:44:24;;;;;;;25.80;15.67;;;21.60;76.70;;;;;;5039760;28;20313;-73
2022/08/19 00:46:51;;;;;;;27.23;15.03;;;21.50;77.40;;;;;;5042800;28;20431;-72
2022/08/19 00:49:31;;;;;;;23.20;14.40;;;21.50;77.40;;;;;;5042802;28;20469;-72
2022/08/19 00:52:13;;;;;;;25.80;14.47;;;21.60;77.00;;;;;;5042228;28;20936;-72
2022/08/19 00:54:39;;;;;;;26.77;15.17;;;21.60;76.80;;;;;;5046549;28;20442;-72
2022/08/19 00:57:09;;;;;;;25.60;15.07;;;21.70;76.80;;;;;;5046266;28;20448;-71
2022/08/19 00:59:37;;;;;;;26.63;15.83;;;21.80;76.50;;;;;;5039227;28;20477;-72
2022/08/19 01:02:04;;;;;;;25.10;15.60;;;21.80;76.50;;;;;;5042254;28;20444;-73
2022/08/19 01:04:29;;;;;;;25.70;15.13;;;21.70;76.40;;;;;;5036152;28;20843;-71
2022/08/19 01:06:56;;;;;;;26.83;15.93;;;21.70;76.80;;;;;;5041135;28;20425;-70
2022/08/19 01:09:22;;;;;;;26.77;14.77;;;21.60;76.80;;;;;;5039806;28;20214;-71
2022/08/19 01:11:48;;;;;;;27.60;15.40;;;21.70;76.80;;;;;;5039725;28;20430;-71
2022/08/19 01:14:16;;;;;;;28.57;15.83;;;21.70;76.80;;;;;;5033550;28;20279;-72
2022/08/19 01:16:43;;;;;;;24.10;14.57;;;21.70;76.80;;;;;;5041389;28;20430;-71
2022/08/19 01:19:24;;;;;;;27.20;16.50;;;21.70;77.10;;;;;;5037417;28;20854;-72
2022/08/19 01:22:00;;;;;;;24.67;14.80;;;21.70;76.70;;;;;;5050169;28;20830;-72
2022/08/19 01:24:26;;;;;;;27.40;15.70;;;21.70;76.80;;;;;;5040299;28;20461;-71
2022/08/19 01:26:52;;;;;;;24.83;14.93;;;21.70;76.80;;;;;;5044086;28;20423;-72
2022/08/19 01:29:18;;;;;;;26.70;16.23;;;21.70;76.80;;;;;;5042819;28;20213;-71
2022/08/19 01:31:44;;;;;;;28.00;15.97;;;21.60;77.00;;;;;;5038078;28;20418;-72
2022/08/19 01:34:09;;;;;;;27.93;15.70;;;21.70;77.00;;;;;;5045840;28;20209;-72
2022/08/19 01:36:45;;;;;;;28.90;16.47;;;21.60;77.00;;;;;;5040156;28;20612;-72
2022/08/19 01:39:16;;;;;;;27.27;15.90;;;21.50;77.60;;;;;;5041321;28;20238;-71
2022/08/19 01:41:41;;;;;;;34.20;16.27;;;21.60;77.30;;;;;;5038126;28;20429;-72
2022/08/19 01:44:09;;;;;;;26.30;15.43;;;21.70;76.80;;;;;;5044048;28;20511;-73
2022/08/19 01:46:35;;;;;;;29.73;16.90;;;21.70;76.80;;;;;;5035331;28;20635;-72
2022/08/19 01:49:01;;;;;;;27.73;15.77;;;21.60;77.30;;;;;;5039643;28;20475;-72
2022/08/19 01:51:27;;;;;;;25.93;16.27;;;21.60;77.70;;;;;;5034561;28;20421;-71
2022/08/19 01:53:53;;;;;;;33.50;17.80;;;21.50;77.60;;;;;;5037353;28;20484;-71
2022/08/19 01:56:19;;;;;;;26.97;16.57;;;21.40;78.30;;;;;;5033666;28;20188;-72
2022/08/19 01:58:50;;;;;;;28.63;16.03;;;21.50;78.10;;;;;;5042187;28;20279;-72
2022/08/19 02:01:16;;;;;;;26.90;16.63;;;21.50;78.10;;;;;;5038854;28;20798;-72
2022/08/19 02:03:42;;;;;;;27.73;16.40;;;21.50;77.80;;;;;;5040019;28;20440;-71
2022/08/19 02:06:08;;;;;;;30.60;15.90;;;21.60;77.80;;;;;;5042456;28;20475;-76
2022/08/19 02:08:37;;;;;;;27.60;16.77;;;21.70;77.40;;;;;;5038824;28;20277;-72
2022/08/19 02:11:03;;;;;;;31.93;17.63;;;21.60;77.40;;;;;;5035660;28;20423;-72
2022/08/19 02:13:29;;;;;;;27.43;16.00;;;21.60;77.80;;;;;;5044208;28;20424;-72
2022/08/19 02:15:54;;;;;;;30.30;17.07;;;21.40;78.30;;;;;;5035315;28;20755;-72
2022/08/19 02:18:20;;;;;;;31.73;17.90;;;21.30;78.90;;;;;;5037892;28;20220;-72
2022/08/19 02:20:47;;;;;;;29.00;15.87;;;21.30;78.90;;;;;;5038339;28;20196;-72
2022/08/19 02:23:14;;;;;;;29.23;18.40;;;21.30;79.00;;;;;;5040098;28;20178;-72
2022/08/19 02:25:40;;;;;;;28.97;16.50;;;21.30;79.00;;;;;;5038958;28;20816;-72
2022/08/19 02:28:06;;;;;;;33.40;18.30;;;21.40;78.90;;;;;;5039220;28;20991;-72
2022/08/19 02:30:32;;;;;;;33.27;17.23;;;21.40;78.90;;;;;;5038648;28;20431;-73
2022/08/19 02:32:57;;;;;;;32.67;18.50;;;21.30;78.90;;;;;;5038257;28;20421;-72
2022/08/19 02:35:23;;;;;;;30.47;17.80;;;21.30;79.00;;;;;;5041108;28;20189;-70
2022/08/19 02:40:34;;;;;;;31.63;18.50;;;21.30;79.30;;;;;;5037646;28;20210;-70
2022/08/19 02:43:02;;;;;;;30.33;17.60;;;21.20;79.90;;;;;;5042551;28;20803;-71
2022/08/19 02:45:31;;;;;;;31.00;17.93;;;21.20;79.90;;;;;;5045850;28;20464;-71
2022/08/19 02:47:57;;;;;;;36.07;20.03;;;21.20;79.70;;;;;;5035306;28;20450;-71
2022/08/19 02:50:22;;;;;;;33.47;19.67;;;21.10;79.90;;;;;;5047595;28;20412;-72
2022/08/19 02:52:48;;;;;;;33.53;20.10;;;21.00;80.50;;;;;;5042512;28;20209;-71
2022/08/19 02:55:14;;;;;;;35.63;19.70;;;21.10;80.30;;;;;;5042221;28;20188;-71
2022/08/19 02:57:41;;;;;;;35.30;20.10;;;21.00;80.60;;;;;;5032326;28;20194;-70
2022/08/19 03:00:11;;;;;;;37.67;19.97;;;20.90;80.90;;;;;;5039320;28;20449;-72
2022/08/19 03:02:37;;;;;;;36.20;19.97;;;21.00;80.90;;;;;;5036736;28;20425;-71
2022/08/19 03:05:04;;;;;;;35.43;19.53;;;21.00;80.80;;;;;;5039873;28;21177;-72
2022/08/19 03:07:30;;;;;;;37.07;20.33;;;21.00;80.80;;;;;;5037988;28;20603;-72
2022/08/19 03:09:56;;;;;;;36.00;20.23;;;21.00;81.10;;;;;;5037598;28;21227;-72
2022/08/19 03:12:21;;;;;;;38.23;20.70;;;21.00;81.40;;;;;;5040130;28;20420;-71
2022/08/19 03:14:47;;;;;;;36.17;19.70;;;21.00;81.40;;;;;;5041260;28;20226;-69
2022/08/19 03:17:12;;;;;;;42.33;23.13;;;20.90;81.50;;;;;;5038627;28;20698;-71
2022/08/19 03:19:38;;;;;;;40.37;22.63;;;20.90;81.70;;;;;;5036237;28;20232;-73
2022/08/19 03:22:04;;;;;;;41.80;22.50;;;20.70;83.10;;;;;;5044083;28;20195;-72
2022/08/19 03:24:30;;;;;;;39.87;21.67;;;20.60;83.40;;;;;;5040554;28;20263;-71
2022/08/19 03:26:57;;;;;;;38.57;21.10;;;20.60;83.40;;;;;;5039923;28;20455;-71
2022/08/19 03:29:24;;;;;;;38.70;22.33;;;20.60;83.40;;;;;;5041055;28;20456;-71
2022/08/19 03:31:51;;;;;;;37.37;21.80;;;20.60;83.40;;;;;;5037156;28;20464;-71
2022/08/19 03:34:21;;;;;;;50.37;23.53;;;20.60;83.30;;;;;;5039283;28;20420;-72
2022/08/19 03:36:47;;;;;;;39.23;22.30;;;20.60;83.10;;;;;;5047421;28;20426;-72
2022/08/19 03:39:14;;;;;;;40.23;23.00;;;20.60;83.00;;;;;;5046144;28;20488;-72
2022/08/19 03:41:43;;;;;;;41.27;21.60;;;20.60;82.80;;;;;;5044018;28;20421;-71
2022/08/19 03:44:09;;;;;;;40.50;24.27;;;20.50;83.10;;;;;;5044705;28;20473;-71
2022/08/19 03:46:35;;;;;;;36.40;23.00;;;20.60;83.10;;;;;;5048870;28;20524;-72
2022/08/19 03:49:07;;;;;;;39.33;22.13;;;20.60;83.30;;;;;;5039645;28;20457;-70
2022/08/19 03:51:38;;;;;;;38.13;22.73;;;20.60;83.00;;;;;;5042132;28;20886;-71
2022/08/19 03:54:06;;;;;;;39.80;21.60;;;20.50;83.40;;;;;;5037437;28;20419;-70
2022/08/19 03:56:35;;;;;;;43.13;22.40;;;20.40;83.80;;;;;;5047013;28;20420;-70
2022/08/19 03:59:01;;;;;;;40.13;23.60;;;20.50;83.60;;;;;;5043841;28;21474;-70
2022/08/19 04:01:28;;;;;;;43.97;23.67;;;20.60;83.10;;;;;;5042571;28;20435;-69
2022/08/19 04:03:56;;;;;;;39.47;23.33;;;20.60;82.70;;;;;;5036142;28;20468;-72
2022/08/19 04:06:31;;;;;;;40.43;23.33;;;20.50;82.80;;;;;;5042749;28;20948;-70
2022/08/19 04:08:59;;;;;;;46.53;25.00;;;20.40;83.40;;;;;;5037217;28;20465;-71
2022/08/19 04:11:27;;;;;;;45.27;25.30;;;20.30;83.70;;;;;;5041626;28;20416;-71
2022/08/19 04:13:53;;;;;;;45.10;23.70;;;20.30;83.80;;;;;;5041078;28;20431;-72
2022/08/19 04:16:20;;;;;;;46.63;25.03;;;20.30;84.00;;;;;;5040313;28;20467;-71
2022/08/19 04:18:47;;;;;;;42.80;24.70;;;20.20;84.10;;;;;;5033107;28;20494;-71
2022/08/19 04:21:22;;;;;;;40.37;24.23;;;20.30;84.10;;;;;;5042130;28;20477;-71
2022/08/19 04:23:48;;;;;;;44.70;24.47;;;20.40;84.00;;;;;;5051008;28;20470;-71
2022/08/19 04:26:15;;;;;;;39.20;23.47;;;20.50;83.10;;;;;;5044387;28;20508;-71
2022/08/19 04:28:42;;;;;;;40.10;22.60;;;20.60;83.00;;;;;;5044476;28;20460;-72
2022/08/19 04:31:14;;;;;;;41.17;24.73;;;20.60;82.70;;;;;;5047608;28;20423;-71
2022/08/19 04:33:39;;;;;;;42.37;24.70;;;20.70;82.40;;;;;;5050046;28;20493;-71
2022/08/19 04:36:05;;;;;;;37.87;23.23;;;20.60;82.40;;;;;;5042483;28;20471;-70
2022/08/19 04:38:31;;;;;;;47.07;25.50;;;20.50;82.70;;;;;;5036710;28;20208;-70
2022/08/19 04:43:40;;;;;;;43.30;25.37;;;20.50;82.80;;;;;;5043898;28;20291;-72
2022/08/19 04:46:11;;;;;;;39.93;23.43;;;20.50;82.70;;;;;;5042028;28;20942;-72
2022/08/19 04:48:37;;;;;;;48.53;24.23;;;20.50;82.70;;;;;;5039740;28;20227;-72
2022/08/19 04:51:08;;;;;;;44.37;24.63;;;20.50;82.70;;;;;;5038158;28;20506;-72
2022/08/19 04:53:35;;;;;;;47.73;26.50;;;20.40;83.40;;;;;;5041121;28;20423;-71
2022/08/19 04:56:07;;;;;;;45.40;24.93;;;20.50;83.00;;;;;;5040231;28;20412;-72
2022/08/19 04:58:33;;;;;;;46.47;26.20;;;20.50;82.50;;;;;;5041288;28;20467;-72
2022/08/19 05:01:02;;;;;;;46.03;23.13;;;20.40;83.30;;;;;;5040310;28;22131;-71
2022/08/19 05:03:33;;;;;;;46.33;25.67;;;20.50;83.30;;;;;;5042543;28;20502;-71
2022/08/19 05:06:07;;;;;;;40.77;24.77;;;20.60;82.50;;;;;;5035961;28;20437;-71
2022/08/19 05:08:36;;;;;;;48.73;24.10;;;20.70;82.20;;;;;;5038427;28;20444;-72
2022/08/19 05:11:11;;;;;;;46.33;25.87;;;20.70;82.10;;;;;;5048977;28;20796;-72
2022/08/19 05:13:37;;;;;;;46.57;25.00;;;20.60;82.50;;;;;;5032830;28;20495;-71
2022/08/19 05:16:04;;;;;;;45.00;25.90;;;20.30;83.70;;;;;;5045392;28;20417;-70
2022/08/19 05:24:01;;;;;;;43.87;24.67;;;20.50;83.40;;;;;;5042727;28;20525;-72
2022/08/19 05:26:28;;;;;;;45.13;25.50;;;20.50;83.30;;;;;;5043923;28;20450;-72
2022/08/19 05:28:55;;;;;;;43.03;23.93;;;20.60;83.00;;;;;;5038686;28;20460;-69
2022/08/19 05:31:21;;;;;;;47.57;26.33;;;20.70;82.80;;;;;;5041646;28;20189;-70
2022/08/19 05:33:47;;;;;;;44.80;24.93;;;20.70;82.40;;;;;;5041477;28;20425;-72
2022/08/19 05:36:13;;;;;;;41.60;24.50;;;20.60;83.00;;;;;;5039805;28;20960;-71
2022/08/19 05:38:39;;;;;;;50.07;25.37;;;20.50;83.10;;;;;;5038400;28;20459;-70
2022/08/19 05:41:09;;;;;;;43.37;25.43;;;20.50;83.30;;;;;;5038959;28;20416;-71
2022/08/19 05:43:36;;;;;;;39.63;23.57;;;20.50;83.40;;;;;;5040085;28;20259;-72
2022/08/19 05:46:04;;;;;;;49.03;26.43;;;20.60;83.10;;;;;;5037226;28;20414;-70
2022/08/19 05:48:30;;;;;;;39.90;23.70;;;20.70;82.70;;;;;;5039412;28;20444;-72
2022/08/19 05:50:56;;;;;;;46.40;25.20;;;20.70;82.80;;;;;;5036697;28;20487;-71
2022/08/19 05:53:22;;;;;;;47.77;25.87;;;20.60;83.00;;;;;;5039309;28;20195;-72
2022/08/19 05:55:47;;;;;;;41.70;22.73;;;20.50;83.30;;;;;;5035607;28;20427;-71
2022/08/19 05:58:13;;;;;;;45.80;26.77;;;20.50;83.40;;;;;;5041573;28;20723;-71
2022/08/19 06:00:39;;;;;;;41.23;24.00;;;20.50;83.40;;;;;;5034221;28;20273;-72
2022/08/19 06:03:05;;;;;;;42.80;25.30;;;20.50;83.60;;;;;;5040558;28;20705;-71
2022/08/19 06:05:31;;;;;;;47.57;25.13;;;20.50;83.40;;;;;;5037987;28;20460;-71
2022/08/19 06:07:58;;;;;;;41.90;24.60;;;20.50;83.40;;;;;;5040955;28;20546;-72
2022/08/19 06:10:25;;;;;;;44.03;25.67;;;20.40;83.70;;;;;;5039023;28;20426;-71
2022/08/19 06:12:51;;;;;;;48.30;25.33;;;20.40;84.00;;;;;;5042331;28;20437;-69
2022/08/19 06:15:17;;;;;;;44.73;25.03;;;20.40;83.70;;;;;;5038614;28;20780;-70
2022/08/19 06:17:44;;;;;;;41.00;24.37;;;20.40;83.70;;;;;;5042507;28;20448;-71
2022/08/19 06:20:13;;;;;;;43.13;23.60;;;20.50;83.40;;;;;;5035351;28;20190;-71
2022/08/19 06:22:40;;;;;;;41.93;25.10;;;20.50;83.60;;;;;;5040394;28;20429;-71
2022/08/19 06:25:06;;;;;;;45.13;24.43;;;20.50;83.40;;;;;;5039908;28;20534;-70
2022/08/19 06:27:33;;;;;;;43.20;24.73;;;20.60;83.10;;;;;;5040398;28;20510;-71
2022/08/19 06:29:58;;;;;;;41.80;22.03;;;20.40;83.60;;;;;;5041838;28;20452;-71
2022/08/19 06:32:24;;;;;;;47.30;26.00;;;20.60;83.40;;;;;;5038762;28;20916;-72
2022/08/19 06:34:50;;;;;;;44.80;24.27;;;20.50;83.60;;;;;;5036211;28;20214;-70
2022/08/19 06:37:16;;;;;;;47.17;27.03;;;20.50;83.40;;;;;;5037737;28;20186;-70
2022/08/19 06:39:43;;;;;;;45.10;24.70;;;20.40;84.10;;;;;;5042399;28;20206;-72
2022/08/19 06:42:12;;;;;;;42.47;25.57;;;20.50;84.00;;;;;;5037447;28;20189;-72
2022/08/19 06:44:40;;;;;;;43.03;24.00;;;20.50;83.70;;;;;;5044839;28;20464;-72
2022/08/19 06:47:08;;;;;;;48.50;25.50;;;20.40;85.20;;;;;;5041109;28;20424;-71
2022/08/19 06:49:34;;;;;;;43.70;25.10;;;20.40;85.30;;;;;;5044419;28;20464;-72
2022/08/19 06:52:01;;;;;;;44.73;24.57;;;20.40;85.60;;;;;;5037837;28;20443;-71
2022/08/19 06:54:29;;;;;;;43.13;24.47;;;20.40;86.30;;;;;;5042637;28;20478;-71
2022/08/19 06:56:55;;;;;;;40.07;24.00;;;20.40;85.90;;;;;;5045640;28;20440;-71
2022/08/19 06:59:27;;;;;;;43.40;25.10;;;20.60;85.70;;;;;;5043909;28;20518;-71
2022/08/19 07:01:54;;;;;;;51.90;26.37;;;20.40;85.50;;;;;;5041640;28;20836;-71
2022/08/19 07:04:23;;;;;;;47.97;26.90;;;20.40;85.70;;;;;;5046481;28;20463;-71
2022/08/19 07:06:50;;;;;;;43.17;24.40;;;20.40;86.20;;;;;;5035130;28;20480;-72
2022/08/19 07:09:18;;;;;;;45.40;25.07;;;20.20;85.70;;;;;;5045170;28;20514;-72
2022/08/19 07:11:53;;;;;;;41.80;22.23;;;20.20;86.30;;;;;;5046526;28;20420;-71
2022/08/19 07:14:24;;;;;;;43.80;23.67;;;20.40;86.30;;;;;;5041915;28;21223;-72
2022/08/19 07:16:51;;;;;;;43.13;24.70;;;20.50;85.20;;;;;;5042804;28;20932;-70
2022/08/19 07:19:19;;;;;;;48.87;26.20;;;20.50;84.90;;;;;;5037649;28;20583;-70
2022/08/19 07:21:46;;;;;;;41.67;24.17;;;20.30;85.50;;;;;;5039190;28;20433;-70
2022/08/19 07:24:12;;;;;;;41.57;22.80;;;20.30;85.90;;;;;;5040344;28;20551;-70
2022/08/19 07:26:40;;;;;;;45.70;24.20;;;20.30;85.60;;;;;;5048972;28;20506;-70
2022/08/19 07:29:06;;;;;;;48.67;25.50;;;20.20;85.90;;;;;;5036463;28;20451;-72
2022/08/19 07:31:36;;;;;;;44.67;24.50;;;20.20;85.90;;;;;;5041580;28;20443;-71
2022/08/19 07:34:03;;;;;;;42.43;24.20;;;20.20;85.50;;;;;;5041475;28;20936;-70
2022/08/19 07:36:32;;;;;;;48.43;25.27;;;20.30;85.90;;;;;;5043911;28;20434;-71
2022/08/19 07:39:00;;;;;;;45.17;24.60;;;20.30;85.50;;;;;;5039591;28;20448;-72
2022/08/19 07:41:28;;;;;;;42.90;21.00;;;20.30;85.20;;;;;;5043217;28;20437;-71
2022/08/19 07:43:54;;;;;;;42.17;23.77;;;20.40;85.30;;;;;;5037858;28;20520;-70
2022/08/19 07:46:20;;;;;;;40.47;21.97;;;20.40;85.00;;;;;;5046373;28;20487;-71
2022/08/19 07:48:49;;;;;;;43.87;23.90;;;20.30;85.20;;;;;;5040091;28;20457;-71
2022/08/19 07:51:18;;;;;;;44.77;23.50;;;20.30;85.20;;;;;;5047445;28;20416;-71
2022/08/19 07:53:45;;;;;;;50.13;23.77;;;20.20;85.30;;;;;;5039697;28;20421;-71
2022/08/19 07:56:14;;;;;;;42.13;23.00;;;20.30;85.50;;;;;;5046696;28;20414;-70
2022/08/19 07:58:42;;;;;;;38.63;21.93;;;20.30;85.20;;;;;;5038857;28;20496;-72
2022/08/19 08:01:11;;;;;;;40.63;22.77;;;20.30;85.00;;;;;;5048239;28;20428;-72
2022/08/19 08:09:11;;;;;;;40.20;22.60;;;20.30;85.20;;;;;;5040022;28;20465;-70
2022/08/19 08:11:49;;;;;;;40.33;21.70;;;20.40;85.50;;;;;;5039637;28;20417;-71
2022/08/19 08:14:17;;;;;;;40.50;22.43;;;20.40;84.90;;;;;;5042491;28;20898;-71
2022/08/19 08:16:45;;;;;;;38.07;22.07;;;20.30;85.50;;;;;;5040151;28;20429;-71
2022/08/19 08:19:11;;;;;;;44.07;22.90;;;20.30;85.70;;;;;;5039394;28;20486;-71
2022/08/19 08:21:37;;;;;;;37.70;22.77;;;20.30;85.70;;;;;;5032627;28;20438;-71
2022/08/19 08:24:02;;;;;;;38.17;22.40;;;20.20;85.20;;;;;;5044644;28;20471;-71
2022/08/19 08:26:28;;;;;;;39.03;21.80;;;20.10;86.00;;;;;;5042311;28;20194;-71
2022/08/19 08:28:54;;;;;;;38.53;22.93;;;20.10;86.20;;;;;;5042193;28;20212;-70
2022/08/19 08:31:20;;;;;;;38.07;23.10;;;20.10;86.50;;;;;;5040597;28;20189;-72
2022/08/19 08:33:46;;;;;;;46.97;23.97;;;20.10;86.60;;;;;;5042453;28;20642;-70
2022/08/19 08:36:15;;;;;;;39.17;21.00;;;20.20;86.60;;;;;;5038144;28;20223;-71
2022/08/19 08:38:45;;;;;;;39.00;23.40;;;20.20;85.90;;;;;;5043067;28;20980;-71
2022/08/19 08:41:19;;;;;;;40.77;22.30;;;20.20;86.30;;;;;;5036463;28;20424;-72
2022/08/19 08:43:47;;;;;;;46.17;23.67;;;20.20;85.90;;;;;;5044209;28;20412;-71
2022/08/19 08:46:39;;;;;;;39.53;21.50;;;20.20;85.70;;;;;;5049248;28;20427;-70
2022/08/19 08:49:24;;;;;;;40.57;23.40;;;20.20;86.60;;;;;;5035136;28;20468;-70
2022/08/19 08:52:05;;;;;;;35.37;22.17;;;20.40;86.50;;;;;;5042357;28;20413;-71
2022/08/19 08:54:39;;;;;;;41.17;22.33;;;20.40;86.50;;;;;;5032911;28;20519;-71
2022/08/19 08:57:13;;;;;;;40.90;22.40;;;20.20;86.00;;;;;;5039780;28;20450;-71
2022/08/19 08:59:43;;;;;;;42.40;22.80;;;20.20;86.80;;;;;;5038022;28;20465;-70
2022/08/19 09:02:09;;;;;;;35.10;22.23;;;20.30;86.80;;;;;;5041441;28;20458;-71
2022/08/19 09:04:37;;;;;;;40.00;21.73;;;20.30;86.90;;;;;;5042248;28;20470;-72
2022/08/19 09:07:41;;;;;;;43.93;23.07;;;20.50;87.00;;;;;;5041809;28;20773;-72
2022/08/19 09:10:27;;;;;;;38.80;21.13;;;20.50;86.60;;;;;;5040906;28;20493;-71
2022/08/19 09:13:27;;;;;;;36.27;21.17;;;20.50;86.30;;;;;;5037161;28;20435;-71
2022/08/19 09:16:00;;;;;;;37.90;22.20;;;20.60;86.80;;;;;;5042567;28;20927;-71
2022/08/19 09:18:37;;;;;;;35.87;21.47;;;20.60;86.30;;;;;;5039836;28;20582;-71
2022/08/19 09:21:03;;;;;;;34.90;21.70;;;20.70;86.20;;;;;;5040648;28;20897;-70
2022/08/19 09:23:29;;;;;;;38.23;20.93;;;20.60;86.00;;;;;;5036909;28;20423;-71
2022/08/19 09:25:54;;;;;;;40.30;22.93;;;20.70;85.70;;;;;;5039723;28;20669;-71
2022/08/19 09:28:20;;;;;;;40.80;20.77;;;20.70;85.50;;;;;;5040850;28;20284;-70
2022/08/19 09:30:45;;;;;;;36.73;20.60;;;20.70;85.50;;;;;;5041581;28;20682;-71
2022/08/19 09:33:11;;;;;;;39.57;22.07;;;20.90;85.50;;;;;;5049914;28;20200;-70
2022/08/19 09:35:37;;;;;;;37.07;20.20;;;20.90;85.20;;;;;;5040280;28;20186;-72
2022/08/19 09:38:03;;;;;;;39.87;21.10;;;20.90;84.90;;;;;;5038827;28;20532;-71
2022/08/19 09:40:30;;;;;;;32.13;19.47;;;20.90;85.00;;;;;;5041918;28;20201;-71
2022/08/19 09:42:56;;;;;;;34.50;20.50;;;21.00;84.70;;;;;;5041112;28;20240;-71
2022/08/19 09:45:22;;;;;;;32.43;19.40;;;21.00;84.40;;;;;;5039021;28;20460;-71
2022/08/19 09:47:51;;;;;;;32.97;18.23;;;21.10;84.30;;;;;;5043318;28;20417;-72
2022/08/19 09:50:18;;;;;;;34.10;19.73;;;21.10;84.10;;;;;;5033380;28;20479;-71
2022/08/19 09:52:44;;;;;;;32.90;19.70;;;21.10;84.10;;;;;;5041964;28;20423;-71
2022/08/19 09:55:11;;;;;;;31.63;19.33;;;21.30;84.00;;;;;;5036192;28;20449;-70
2022/08/19 09:57:38;;;;;;;33.83;19.10;;;21.40;83.70;;;;;;5043688;28;20425;-71
2022/08/19 10:00:06;;;;;;;33.23;18.53;;;21.40;83.70;;;;;;5034971;28;20504;-70
2022/08/19 10:02:31;;;;;;;33.73;19.17;;;21.50;83.40;;;;;;5042920;28;20483;-72
2022/08/19 10:07:41;;;;;;;32.57;18.57;;;21.50;83.00;;;;;;5043911;28;20198;-73
2022/08/19 10:10:07;;;;;;;27.07;16.90;;;21.50;83.30;;;;;;5035519;28;20438;-72
2022/08/19 10:12:34;;;;;;;30.97;17.40;;;21.60;83.00;;;;;;5043475;28;20183;-73
2022/08/19 10:15:01;;;;;;;28.87;17.47;;;21.50;82.50;;;;;;5048998;28;20555;-71
2022/08/19 10:17:27;;;;;;;33.40;18.20;;;21.50;82.50;;;;;;5044491;28;20426;-72
2022/08/19 10:19:52;;;;;;;30.07;17.53;;;21.50;82.50;;;;;;5047180;28;20460;-71
2022/08/19 10:22:19;;;;;;;25.43;15.60;;;21.60;82.50;;;;;;5047872;28;20244;-71
2022/08/19 10:24:47;;;;;;;30.33;17.63;;;21.70;81.80;;;;;;5038173;28;20299;-71
2022/08/19 10:27:13;;;;;;;31.57;17.13;;;21.60;81.80;;;;;;5042071;28;20418;-73
2022/08/19 10:29:40;;;;;;;29.10;17.40;;;21.60;81.80;;;;;;5039477;28;20506;-72
2022/08/19 10:32:08;;;;;;;28.53;17.13;;;21.70;81.90;;;;;;5038017;28;20483;-72
2022/08/19 10:34:35;;;;;;;26.43;16.20;;;21.70;82.10;;;;;;5041902;28;20449;-71
2022/08/19 10:37:02;;;;;;;30.90;17.63;;;21.90;81.70;;;;;;5037567;28;20508;-71
2022/08/19 10:39:32;;;;;;;30.23;16.70;;;22.00;81.40;;;;;;5041140;28;20474;-70
2022/08/19 10:41:57;;;;;;;26.63;17.00;;;21.90;81.50;;;;;;5036944;28;20476;-71
2022/08/19 10:44:23;;;;;;;25.30;16.20;;;21.90;81.70;;;;;;5040219;28;20466;-71
2022/08/19 10:46:50;;;;;;;27.60;17.00;;;21.90;81.10;;;;;;5042929;28;21179;-71
2022/08/19 10:49:15;;;;;;;25.27;16.50;;;21.90;80.60;;;;;;5041176;28;20485;-71
2022/08/19 10:56:50;;;;;;;25.23;16.40;;;22.10;80.50;;;;;;5038015;28;20241;-71
2022/08/19 10:57:12;;;;;;;32.27;15.37;;;22.30;79.90;;;;;;5034584;28;20437;-72
2022/08/19 10:59:38;;;;;;;22.07;14.73;;;22.40;80.30;;;;;;5034448;28;20547;-71
2022/08/19 11:02:06;;;;;;;27.17;15.50;;;22.50;78.90;;;;;;5041861;28;20187;-70
2022/08/19 11:04:33;;;;;;;23.60;15.20;;;22.40;78.10;;;;;;5036515;28;20463;-72
2022/08/19 11:06:58;;;;;;;20.53;13.30;;;22.30;78.70;;;;;;5040849;28;20759;-71
2022/08/19 11:09:27;;;;;;;25.43;15.13;;;22.30;78.40;;;;;;5034809;28;20469;-70
2022/08/19 11:11:53;;;;;;;22.60;13.73;;;22.30;78.10;;;;;;5038811;28;20230;-71
2022/08/19 11:14:20;;;;;;;25.03;14.07;;;22.30;78.30;;;;;;5035835;28;21092;-71
2022/08/19 11:16:48;;;;;;;19.80;12.70;;;22.50;78.60;;;;;;5044306;28;20995;-71
2022/08/19 11:19:15;;;;;;;17.80;12.63;;;22.70;76.80;;;;;;5038958;28;20474;-72
2022/08/19 11:21:44;;;;;;;21.90;13.00;;;22.50;76.40;;;;;;5042341;28;20427;-71
2022/08/19 11:24:12;;;;;;;19.20;11.40;;;22.60;76.80;;;;;;5034138;28;20889;-71
2022/08/19 11:26:39;;;;;;;19.90;12.63;;;22.70;76.50;;;;;;5036920;28;20419;-72
2022/08/19 11:29:11;;;;;;;20.60;12.60;;;22.70;76.10;;;;;;5038436;28;20513;-69
2022/08/19 11:31:38;;;;;;;20.77;12.40;;;22.80;76.20;;;;;;5045230;28;20598;-72
2022/08/19 11:34:06;;;;;;;17.50;11.73;;;22.70;75.90;;;;;;5038885;28;20874;-71
2022/08/19 11:36:33;;;;;;;32.33;13.87;;;22.70;76.20;;;;;;5043659;28;20419;-71
2022/08/19 11:39:00;;;;;;;17.77;11.47;;;22.80;75.50;;;;;;5042408;28;20448;-70
2022/08/19 11:41:26;;;;;;;20.00;11.53;;;22.80;75.50;;;;;;5050612;28;20500;-72
2022/08/19 11:43:54;;;;;;;27.43;12.67;;;23.00;75.50;;;;;;5044089;28;20425;-71
2022/08/19 11:46:22;;;;;;;22.23;13.10;;;23.10;74.30;;;;;;5049434;28;20434;-71
2022/08/19 11:48:49;;;;;;;19.67;11.77;;;22.90;73.60;;;;;;5045040;28;20456;-71
2022/08/19 11:51:18;;;;;;;18.60;11.93;;;23.00;73.60;;;;;;5056423;28;20973;-71
2022/08/19 11:53:45;;;;;;;20.93;13.03;;;23.00;73.50;;;;;;5048732;28;20425;-71
2022/08/19 11:56:11;;;;;;;15.67;11.97;;;23.10;73.30;;;;;;5043239;28;20469;-72
2022/08/19 11:58:38;;;;;;;21.27;11.50;;;23.10;73.50;;;;;;5039664;28;20570;-71
2022/08/19 12:01:14;;;;;;;19.00;12.50;;;23.10;73.00;;;;;;5053121;28;20470;-71
2022/08/19 12:03:40;;;;;;;20.87;13.37;;;23.20;72.60;;;;;;5050965;28;20467;-72
2022/08/19 12:06:08;;;;;;;18.67;10.83;;;23.20;72.90;;;;;;5040321;28;21065;-70
2022/08/19 12:08:34;;;;;;;19.43;12.67;;;23.30;72.60;;;;;;5044196;28;20463;-71
2022/08/19 12:11:02;;;;;;;16.83;11.43;;;23.30;72.10;;;;;;5045801;28;20868;-70
2022/08/19 12:13:30;;;;;;;15.97;11.53;;;23.20;72.40;;;;;;5045883;28;20181;-70
2022/08/19 12:15:56;;;;;;;20.87;11.30;;;23.20;72.60;;;;;;5042549;28;20416;-70
2022/08/19 12:18:22;;;;;;;16.53;11.37;;;23.30;72.90;;;;;;5043450;28;20478;-71
2022/08/19 12:20:50;;;;;;;16.93;12.20;;;23.30;72.70;;;;;;5041538;28;20811;-71
2022/08/19 12:23:16;;;;;;;23.00;12.43;;;23.30;72.40;;;;;;5044702;28;20464;-71
2022/08/19 12:25:51;;;;;;;19.40;12.57;;;23.40;72.70;;;;;;5034443;28;20543;-71
2022/08/19 12:28:20;;;;;;;19.90;12.50;;;23.50;73.60;;;;;;5040587;28;20842;-71
2022/08/19 12:30:47;;;;;;;19.73;12.60;;;23.70;74.20;;;;;;5042756;28;20850;-72
2022/08/19 12:33:13;;;;;;;25.37;12.80;;;23.70;74.50;;;;;;5042075;28;20912;-72
2022/08/19 12:35:44;;;;;;;17.90;11.60;;;23.70;74.60;;;;;;5041016;28;20797;-71
2022/08/19 12:38:10;;;;;;;20.43;13.27;;;23.80;74.30;;;;;;5039815;28;20884;-70
2022/08/19 12:40:37;;;;;;;18.37;11.70;;;23.90;74.30;;;;;;5044491;28;20427;-71
2022/08/19 12:43:02;;;;;;;22.90;14.00;;;24.00;74.60;;;;;;5048247;28;20425;-71
2022/08/19 12:45:28;;;;;;;23.57;13.63;;;23.90;75.70;;;;;;5049657;28;20523;-70
2022/08/19 12:47:54;;;;;;;22.13;14.00;;;23.70;77.40;;;;;;5048581;28;20709;-70
2022/08/19 12:50:21;;;;;;;19.07;13.13;;;23.60;78.90;;;;;;5045242;28;20205;-71
2022/08/19 12:52:47;;;;;;;19.67;13.37;;;23.40;79.60;;;;;;5039014;28;20226;-71